| time (UTC) | temp F | wind direction | speed MPH | gust MPH | rain 1hr in | rain 24hr in | rain mn in | humidity % | barometer mb |
| 20260905231017 | 56 | 201 | 0.0 | 1.0 | 0.00 | 0.00 | 0.00 | 75 | 1025.0 |
| 20260905230617 | 55 | 17 | 1.0 | 2.0 | 0.00 | 0.00 | 0.00 | 75 | 1025.0 |
| 20260905230217 | 56 | 179 | 1.0 | 1.0 | 0.00 | 0.00 | 0.00 | 75 | 1025.0 |
| 20260905225816 | 56 | 283 | 0.0 | 1.0 | 0.00 | 0.00 | 0.00 | 75 | 1025.0 |
| 20260905225418 | 56 | 281 | 1.0 | 1.0 | 0.00 | 0.00 | 0.00 | 75 | 1025.0 |
| 20260905225016 | 56 | 25 | 0.0 | 0.0 | 0.00 | 0.00 | 0.00 | 75 | 1025.0 |
| 20260905224617 | 56 | 166 | 0.0 | 1.0 | 0.00 | 0.00 | 0.00 | 75 | 1025.0 |
| 20260905224217 | 56 | 274 | 1.0 | 2.0 | 0.00 | 0.00 | 0.00 | 74 | 1025.0 |
| 20260905223817 | 56 | 242 | 0.0 | 0.0 | 0.00 | 0.00 | 0.00 | 74 | 1025.0 |
| 20260905223017 | 56 | 291 | 1.0 | 1.0 | 0.00 | 0.00 | 0.00 | 75 | 1025.0 |
| 20260905222618 | 56 | 74 | 2.0 | 2.0 | 0.00 | 0.00 | 0.00 | 75 | 1025.0 |
| 20260905222218 | 56 | 269 | 0.0 | 1.0 | 0.00 | 0.00 | 0.00 | 76 | 1025.0 |
| 20260905221817 | 56 | 216 | 0.0 | 0.0 | 0.00 | 0.00 | 0.00 | 76 | 1025.0 |
| 20260905221420 | 56 | 269 | 0.0 | 0.0 | 0.00 | 0.00 | 0.00 | 76 | 1025.0 |
| 20260905221049 | 56 | 89 | 0.0 | 1.0 | 0.00 | 0.00 | 0.00 | 76 | 1025.0 |
| 20260905221017 | 56 | 89 | 0.0 | 1.0 | 0.00 | 0.00 | 0.00 | 76 | 1025.0 |
| 20260905220617 | 56 | 224 | 0.0 | 0.0 | 0.00 | 0.00 | 0.00 | 75 | 1025.0 |
| 20260905220217 | 56 | 224 | 0.0 | 1.0 | 0.00 | 0.00 | 0.00 | 76 | 1025.0 |
| 20260905215816 | 56 | 25 | 0.0 | 0.0 | 0.00 | 0.00 | 0.00 | 76 | 1025.0 |
| 20260905215416 | 56 | 50 | 0.0 | 0.0 | 0.00 | 0.00 | 0.00 | 75 | 1025.0 |
| 20260905215016 | 56 | 89 | 0.0 | 0.0 | 0.00 | 0.00 | 0.00 | 76 | 1025.0 |
| 20260905214617 | 56 | 162 | 0.0 | 1.0 | 0.00 | 0.00 | 0.00 | 76 | 1025.0 |
| 20260905213816 | 56 | 198 | 0.0 | 2.0 | 0.00 | 0.00 | 0.00 | 76 | 1025.0 |
| 20260905213417 | 56 | 68 | 0.0 | 2.0 | 0.00 | 0.00 | 0.00 | 76 | 1025.0 |
| 20260905212617 | 57 | 186 | 0.0 | 0.0 | 0.00 | 0.00 | 0.00 | 74 | 1025.0 |
| 20260905212217 | 57 | 343 | 0.0 | 0.0 | 0.00 | 0.00 | 0.00 | 74 | 1025.0 |
| 20260905211817 | 57 | 326 | 0.0 | 1.0 | 0.00 | 0.00 | 0.00 | 74 | 1025.0 |
| 20260905211417 | 57 | 114 | 1.0 | 2.0 | 0.00 | 0.00 | 0.00 | 74 | 1025.0 |
| 20260905210217 | 57 | 146 | 0.0 | 0.0 | 0.00 | 0.00 | 0.00 | 73 | 1025.0 |
| 20260905205818 | 57 | 355 | 1.0 | 1.0 | 0.00 | 0.00 | 0.00 | 74 | 1025.0 |
| 20260905205417 | 57 | 125 | 0.0 | 1.0 | 0.00 | 0.00 | 0.00 | 74 | 1024.0 |
| 20260905204618 | 57 | 48 | 1.0 | 2.0 | 0.00 | 0.00 | 0.00 | 75 | 1025.0 |
| 20260905204217 | 57 | 164 | 0.0 | 0.0 | 0.00 | 0.00 | 0.00 | 74 | 1025.0 |
| 20260905203816 | 57 | 212 | 0.0 | 0.0 | 0.00 | 0.00 | 0.00 | 73 | 1025.0 |
| 20260905203417 | 57 | 272 | 0.0 | 1.0 | 0.00 | 0.00 | 0.00 | 74 | 1025.0 |
| 20260905203017 | 58 | 117 | 0.0 | 0.0 | 0.00 | 0.00 | 0.00 | 73 | 1025.0 |
| 20260905202619 | 58 | 315 | 0.0 | 0.0 | 0.00 | 0.00 | 0.00 | 72 | 1025.0 |
| 20260905202217 | 58 | 49 | 0.0 | 0.0 | 0.00 | 0.00 | 0.00 | 72 | 1025.0 |
| 20260905201817 | 58 | 224 | 0.0 | 0.0 | 0.00 | 0.00 | 0.00 | 71 | 1025.0 |
| 20260905201417 | 58 | 144 | 0.0 | 1.0 | 0.00 | 0.00 | 0.00 | 71 | 1025.0 |
| 20260905201017 | 58 | 282 | 0.0 | 0.0 | 0.00 | 0.00 | 0.00 | 71 | 1025.0 |
| 20260905200617 | 58 | 136 | 0.0 | 1.0 | 0.00 | 0.00 | 0.00 | 71 | 1025.0 |
| 20260905195818 | 58 | 292 | 1.0 | 1.0 | 0.00 | 0.00 | 0.00 | 72 | 1024.0 |
| 20260905194616 | 59 | 44 | 0.0 | 0.0 | 0.00 | 0.00 | 0.00 | 69 | 1024.0 |
| 20260905194216 | 59 | 124 | 0.0 | 0.0 | 0.00 | 0.00 | 0.00 | 68 | 1024.0 |
| 20260905193817 | 60 | 321 | 0.0 | 0.0 | 0.00 | 0.00 | 0.00 | 68 | 1024.0 |
| 20260905193417 | 60 | 96 | 0.0 | 0.0 | 0.00 | 0.00 | 0.00 | 67 | 1024.0 |
| 20260905193016 | 60 | 141 | 0.0 | 1.0 | 0.00 | 0.00 | 0.00 | 65 | 1024.0 |
| 20260905192617 | 61 | 32 | 0.0 | 0.0 | 0.00 | 0.00 | 0.00 | 65 | 1024.0 |
| 20260905192217 | 61 | 83 | 1.0 | 2.0 | 0.00 | 0.00 | 0.00 | 63 | 1024.0 |
| 20260905191817 | 61 | 154 | 0.0 | 0.0 | 0.00 | 0.00 | 0.00 | 60 | 1024.0 |
| 20260905191018 | 62 | 164 | 0.0 | 0.0 | 0.00 | 0.00 | 0.00 | 60 | 1024.0 |
| 20260905190618 | 62 | 37 | 0.0 | 0.0 | 0.00 | 0.00 | 0.00 | 58 | 1024.0 |
| 20260905190217 | 63 | 255 | 0.0 | 0.0 | 0.00 | 0.00 | 0.00 | 56 | 1024.0 |
| 20260905185818 | 64 | 217 | 0.0 | 0.0 | 0.00 | 0.00 | 0.00 | 57 | 1024.0 |
| 20260905185417 | 64 | 322 | 0.0 | 0.0 | 0.00 | 0.00 | 0.00 | 58 | 1024.0 |
| 20260905185017 | 65 | 80 | 0.0 | 1.0 | 0.00 | 0.00 | 0.00 | 54 | 1024.0 |
| 20260905184618 | 65 | 184 | 0.0 | 1.0 | 0.00 | 0.00 | 0.00 | 54 | 1024.0 |
| 20260905184216 | 66 | 242 | 1.0 | 1.0 | 0.00 | 0.00 | 0.00 | 53 | 1024.0 |
| 20260905183817 | 67 | 142 | 0.0 | 0.0 | 0.00 | 0.00 | 0.00 | 51 | 1024.0 |
| 20260905183416 | 67 | 154 | 0.0 | 0.0 | 0.00 | 0.00 | 0.00 | 49 | 1024.0 |
| 20260905183019 | 68 | 129 | 0.0 | 0.0 | 0.00 | 0.00 | 0.00 | 48 | 1024.0 |
| 20260905182616 | 68 | 148 | 0.0 | 1.0 | 0.00 | 0.00 | 0.00 | 46 | 1023.0 |
| 20260905182217 | 69 | 290 | 1.0 | 2.0 | 0.00 | 0.00 | 0.00 | 45 | 1023.0 |
| 20260905181817 | 69 | 305 | 0.0 | 0.0 | 0.00 | 0.00 | 0.00 | 45 | 1023.0 |
| 20260905181419 | 70 | 315 | 0.0 | 3.0 | 0.00 | 0.00 | 0.00 | 44 | 1023.0 |
| 20260905180217 | 70 | 291 | 2.0 | 3.0 | 0.00 | 0.00 | 0.00 | 43 | 1023.0 |
| 20260905175817 | 70 | 343 | 4.0 | 4.0 | 0.00 | 0.00 | 0.00 | 43 | 1023.0 |
| 20260905175017 | 71 | 286 | 3.0 | 5.0 | 0.00 | 0.00 | 0.00 | 44 | 1023.0 |
| 20260905173817 | 72 | 20 | 3.0 | 3.0 | 0.00 | 0.00 | 0.00 | 43 | 1023.0 |
| 20260905173416 | 72 | 321 | 4.0 | 5.0 | 0.00 | 0.00 | 0.00 | 43 | 1023.0 |
| 20260905173017 | 72 | 345 | 2.0 | 2.0 | 0.00 | 0.00 | 0.00 | 43 | 1023.0 |
| 20260905172616 | 72 | 335 | 4.0 | 4.0 | 0.00 | 0.00 | 0.00 | 43 | 1023.0 |
| 20260905172216 | 73 | 273 | 2.0 | 3.0 | 0.00 | 0.00 | 0.00 | 42 | 1023.0 |
| 20260905171418 | 73 | 341 | 6.0 | 8.0 | 0.00 | 0.00 | 0.00 | 42 | 1023.0 |
| 20260905171017 | 73 | 347 | 3.0 | 4.0 | 0.00 | 0.00 | 0.00 | 43 | 1022.0 |
| 20260905170618 | 73 | 325 | 4.0 | 5.0 | 0.00 | 0.00 | 0.00 | 42 | 1022.0 |
| 20260905165817 | 73 | 2 | 4.0 | 4.0 | 0.00 | 0.00 | 0.00 | 42 | 1022.0 |
| 20260905165418 | 73 | 358 | 7.0 | 8.0 | 0.00 | 0.00 | 0.00 | 42 | 1022.0 |
| 20260905165017 | 74 | 255 | 2.0 | 4.0 | 0.00 | 0.00 | 0.00 | 42 | 1022.0 |
| 20260905164617 | 74 | 281 | 2.0 | 3.0 | 0.00 | 0.00 | 0.00 | 41 | 1022.0 |
| 20260905164217 | 74 | 279 | 3.0 | 3.0 | 0.00 | 0.00 | 0.00 | 41 | 1022.0 |
| 20260905163816 | 75 | 4 | 3.0 | 4.0 | 0.00 | 0.00 | 0.00 | 40 | 1022.0 |
| 20260905163417 | 75 | 286 | 3.0 | 4.0 | 0.00 | 0.00 | 0.00 | 40 | 1022.0 |
| 20260905163016 | 75 | 337 | 3.0 | 4.0 | 0.00 | 0.00 | 0.00 | 40 | 1022.0 |
| 20260905161816 | 75 | 269 | 0.0 | 2.0 | 0.00 | 0.00 | 0.00 | 40 | 1022.0 |
| 20260905161418 | 75 | 333 | 3.0 | 3.0 | 0.00 | 0.00 | 0.00 | 39 | 1022.0 |
| 20260905161018 | 76 | 292 | 1.0 | 3.0 | 0.00 | 0.00 | 0.00 | 38 | 1022.0 |
| 20260905160617 | 76 | 306 | 2.0 | 4.0 | 0.00 | 0.00 | 0.00 | 38 | 1022.0 |
| 20260905160217 | 77 | 352 | 2.0 | 2.0 | 0.00 | 0.00 | 0.00 | 36 | 1022.0 |
| 20260905155817 | 76 | 1 | 3.0 | 3.0 | 0.00 | 0.00 | 0.00 | 36 | 1022.0 |
| 20260905155416 | 76 | 346 | 6.0 | 9.0 | 0.00 | 0.00 | 0.00 | 37 | 1022.0 |
| 20260905155016 | 76 | 102 | 0.0 | 1.0 | 0.00 | 0.00 | 0.00 | 37 | 1022.0 |
| 20260905154617 | 76 | 350 | 0.0 | 2.0 | 0.00 | 0.00 | 0.00 | 36 | 1022.0 |
| 20260905153816 | 78 | 237 | 0.0 | 1.0 | 0.00 | 0.00 | 0.00 | 35 | 1022.0 |
| 20260905153418 | 78 | 350 | 3.0 | 5.0 | 0.00 | 0.00 | 0.00 | 35 | 1022.0 |
| 20260905153016 | 78 | 358 | 6.0 | 8.0 | 0.00 | 0.00 | 0.00 | 34 | 1022.0 |
| 20260905152617 | 78 | 358 | 6.0 | 7.0 | 0.00 | 0.00 | 0.00 | 34 | 1022.0 |
| 20260905151817 | 78 | 356 | 5.0 | 9.0 | 0.00 | 0.00 | 0.00 | 34 | 1022.0 |
| 20260905151017 | 79 | 354 | 6.0 | 6.0 | 0.00 | 0.00 | 0.00 | 34 | 1022.0 |
| 20260905150617 | 79 | 205 | 2.0 | 2.0 | 0.00 | 0.00 | 0.00 | 34 | 1022.0 |
| 20260905150217 | 78 | 353 | 3.0 | 4.0 | 0.00 | 0.00 | 0.00 | 33 | 1022.0 |
| 20260905145817 | 78 | 307 | 3.0 | 4.0 | 0.00 | 0.00 | 0.00 | 34 | 1022.0 |
| 20260905145417 | 78 | 342 | 3.0 | 4.0 | 0.00 | 0.00 | 0.00 | 33 | 1022.0 |
| 20260905145017 | 79 | 344 | 9.0 | 11.0 | 0.00 | 0.00 | 0.00 | 32 | 1022.0 |
| 20260905144617 | 79 | 319 | 4.0 | 6.0 | 0.00 | 0.00 | 0.00 | 32 | 1022.0 |
| 20260905143817 | 80 | 284 | 6.0 | 8.0 | 0.00 | 0.00 | 0.00 | 33 | 1022.0 |
| 20260905143416 | 79 | 348 | 7.0 | 8.0 | 0.00 | 0.00 | 0.00 | 34 | 1022.0 |
| 20260905143016 | 79 | 303 | 2.0 | 4.0 | 0.00 | 0.00 | 0.00 | 34 | 1022.0 |
| 20260905142616 | 79 | 355 | 6.0 | 7.0 | 0.00 | 0.00 | 0.00 | 35 | 1022.0 |
| 20260905141817 | 78 | 340 | 4.0 | 8.0 | 0.00 | 0.00 | 0.00 | 36 | 1022.0 |
| 20260905141418 | 79 | 354 | 4.0 | 7.0 | 0.00 | 0.00 | 0.00 | 35 | 1022.0 |
| 20260905141017 | 79 | 355 | 2.0 | 5.0 | 0.00 | 0.00 | 0.00 | 35 | 1022.0 |
| 20260905140619 | 79 | 0 | 8.0 | 9.0 | 0.00 | 0.00 | 0.00 | 36 | 1022.0 |
| 20260905140218 | 80 | 16 | 5.0 | 10.0 | 0.00 | 0.00 | 0.00 | 34 | 1022.0 |
| 20260905135817 | 79 | 352 | 5.0 | 5.0 | 0.00 | 0.00 | 0.00 | 35 | 1022.0 |
| 20260905135417 | 79 | 6 | 4.0 | 6.0 | 0.00 | 0.00 | 0.00 | 34 | 1022.0 |
| 20260905135017 | 80 | 343 | 5.0 | 6.0 | 0.00 | 0.00 | 0.00 | 33 | 1022.0 |
| 20260905134617 | 80 | 315 | 5.0 | 5.0 | 0.00 | 0.00 | 0.00 | 34 | 1022.0 |
| 20260905134217 | 80 | 345 | 2.0 | 5.0 | 0.00 | 0.00 | 0.00 | 33 | 1022.0 |
| 20260905133416 | 80 | 357 | 11.0 | 11.0 | 0.00 | 0.00 | 0.00 | 33 | 1022.0 |
| 20260905132616 | 79 | 7 | 6.0 | 6.0 | 0.00 | 0.00 | 0.00 | 35 | 1022.0 |
| 20260905131416 | 79 | 0 | 8.0 | 9.0 | 0.00 | 0.00 | 0.00 | 35 | 1022.0 |
| 20260905131017 | 79 | 357 | 4.0 | 5.0 | 0.00 | 0.00 | 0.00 | 35 | 1022.0 |
| 20260905130617 | 78 | 0 | 5.0 | 7.0 | 0.00 | 0.00 | 0.00 | 35 | 1022.0 |
| 20260905125817 | 78 | 0 | 7.0 | 8.0 | 0.00 | 0.00 | 0.00 | 35 | 1022.0 |
| 20260905125418 | 78 | 332 | 6.0 | 7.0 | 0.00 | 0.00 | 0.00 | 35 | 1022.0 |
| 20260905125017 | 78 | 268 | 5.0 | 9.0 | 0.00 | 0.00 | 0.00 | 36 | 1022.0 |
| 20260905124618 | 77 | 335 | 3.0 | 9.0 | 0.00 | 0.00 | 0.00 | 37 | 1022.0 |
| 20260905124218 | 77 | 306 | 5.0 | 8.0 | 0.00 | 0.00 | 0.00 | 37 | 1022.0 |
| 20260905123816 | 76 | 352 | 6.0 | 8.0 | 0.00 | 0.00 | 0.00 | 39 | 1022.0 |
| 20260905123416 | 76 | 345 | 4.0 | 5.0 | 0.00 | 0.00 | 0.00 | 41 | 1022.0 |
| 20260905123017 | 76 | 356 | 4.0 | 7.0 | 0.00 | 0.00 | 0.00 | 43 | 1022.0 |
| 20260905122619 | 75 | 8 | 0.0 | 5.0 | 0.00 | 0.00 | 0.00 | 45 | 1022.0 |
| 20260905121816 | 75 | 104 | 0.0 | 1.0 | 0.00 | 0.00 | 0.00 | 46 | 1022.0 |
| 20260905121417 | 75 | 106 | 2.0 | 3.0 | 0.00 | 0.00 | 0.00 | 46 | 1022.0 |
| 20260905120617 | 74 | 91 | 2.0 | 3.0 | 0.00 | 0.00 | 0.00 | 48 | 1022.0 |
| 20260905120218 | 74 | 344 | 3.0 | 4.0 | 0.00 | 0.00 | 0.00 | 48 | 1022.0 |
| 20260905115817 | 74 | 1 | 4.0 | 4.0 | 0.00 | 0.00 | 0.00 | 50 | 1022.0 |
| 20260905115417 | 73 | 58 | 0.0 | 1.0 | 0.00 | 0.00 | 0.00 | 50 | 1022.0 |
| 20260905115017 | 73 | 5 | 3.0 | 4.0 | 0.00 | 0.00 | 0.00 | 48 | 1022.0 |
| 20260905114617 | 73 | 359 | 2.0 | 2.0 | 0.00 | 0.00 | 0.00 | 49 | 1022.0 |
| 20260905114217 | 73 | 3 | 3.0 | 4.0 | 0.00 | 0.00 | 0.00 | 50 | 1022.0 |
| 20260905113817 | 73 | 44 | 1.0 | 2.0 | 0.00 | 0.00 | 0.00 | 48 | 1022.0 |
| 20260905113417 | 73 | 23 | 2.0 | 4.0 | 0.00 | 0.00 | 0.00 | 48 | 1022.0 |
| 20260905113016 | 73 | 359 | 5.0 | 5.0 | 0.00 | 0.00 | 0.00 | 49 | 1022.0 |
| 20260905112618 | 73 | 25 | 1.0 | 2.0 | 0.00 | 0.00 | 0.00 | 49 | 1022.0 |
| 20260905112216 | 73 | 36 | 2.0 | 4.0 | 0.00 | 0.00 | 0.00 | 50 | 1022.0 |
| 20260905111818 | 73 | 18 | 3.0 | 5.0 | 0.00 | 0.00 | 0.00 | 50 | 1022.0 |
| 20260905110217 | 71 | 316 | 2.0 | 3.0 | 0.00 | 0.00 | 0.00 | 51 | 1022.0 |
| 20260905105817 | 71 | 60 | 1.0 | 2.0 | 0.00 | 0.00 | 0.00 | 52 | 1022.0 |
| 20260905105417 | 71 | 303 | 2.0 | 3.0 | 0.00 | 0.00 | 0.00 | 52 | 1022.0 |
| 20260905105017 | 71 | 39 | 2.0 | 4.0 | 0.00 | 0.00 | 0.00 | 51 | 1022.0 |
| 20260905104617 | 71 | 345 | 2.0 | 4.0 | 0.00 | 0.00 | 0.00 | 52 | 1022.0 |
| 20260905103912 | 71 | 343 | 2.0 | 3.0 | 0.00 | 0.00 | 0.00 | 52 | 1022.0 |
| 20260905103817 | 71 | 343 | 2.0 | 3.0 | 0.00 | 0.00 | 0.00 | 52 | 1022.0 |
| 20260905103418 | 71 | 353 | 4.0 | 6.0 | 0.00 | 0.00 | 0.00 | 51 | 1022.0 |
| 20260905103017 | 71 | 0 | 6.0 | 7.0 | 0.00 | 0.00 | 0.00 | 52 | 1022.0 |
| 20260905102617 | 71 | 303 | 1.0 | 3.0 | 0.00 | 0.00 | 0.00 | 51 | 1022.0 |
| 20260905101817 | 71 | 30 | 4.0 | 4.0 | 0.00 | 0.00 | 0.00 | 51 | 1023.0 |
| 20260905101017 | 71 | 54 | 3.0 | 7.0 | 0.00 | 0.00 | 0.00 | 50 | 1022.0 |
| 20260905100217 | 71 | 9 | 8.0 | 12.0 | 0.00 | 0.00 | 0.00 | 50 | 1022.0 |
| 20260905095817 | 72 | 0 | 7.0 | 9.0 | 0.00 | 0.00 | 0.00 | 50 | 1022.0 |
| 20260905095017 | 73 | 2 | 13.0 | 15.0 | 0.00 | 0.00 | 0.00 | 48 | 1022.0 |
| 20260905094617 | 74 | 310 | 3.0 | 6.0 | 0.00 | 0.00 | 0.00 | 47 | 1022.0 |
| 20260905094217 | 74 | 350 | 6.0 | 7.0 | 0.00 | 0.00 | 0.00 | 47 | 1022.0 |
| 20260905093817 | 73 | 354 | 7.0 | 8.0 | 0.00 | 0.00 | 0.00 | 49 | 1022.0 |
| 20260905093017 | 72 | 293 | 2.0 | 2.0 | 0.00 | 0.00 | 0.00 | 53 | 1022.0 |
| 20260905092617 | 71 | 349 | 3.0 | 4.0 | 0.00 | 0.00 | 0.00 | 49 | 1022.0 |
| 20260905092217 | 71 | 17 | 4.0 | 7.0 | 0.00 | 0.00 | 0.00 | 51 | 1022.0 |
| 20260905091818 | 71 | 0 | 6.0 | 16.0 | 0.00 | 0.00 | 0.00 | 51 | 1022.0 |
| 20260905091017 | 70 | 6 | 4.0 | 7.0 | 0.00 | 0.00 | 0.00 | 52 | 1022.0 |
| 20260905090216 | 70 | 10 | 6.0 | 8.0 | 0.00 | 0.00 | 0.00 | 52 | 1022.0 |
| 20260905085848 | 69 | 111 | 5.0 | 5.0 | 0.00 | 0.00 | 0.00 | 54 | 1022.0 |
| 20260905085816 | 69 | 111 | 5.0 | 5.0 | 0.00 | 0.00 | 0.00 | 54 | 1022.0 |
| 20260905085417 | 69 | 340 | 2.0 | 3.0 | 0.00 | 0.00 | 0.00 | 53 | 1023.0 |
| 20260905085017 | 69 | 307 | 2.0 | 4.0 | 0.00 | 0.00 | 0.00 | 54 | 1023.0 |
| 20260905084617 | 69 | 58 | 2.0 | 2.0 | 0.00 | 0.00 | 0.00 | 54 | 1023.0 |
| 20260905084217 | 69 | 115 | 3.0 | 3.0 | 0.00 | 0.00 | 0.00 | 53 | 1023.0 |
| 20260905083817 | 69 | 142 | 4.0 | 4.0 | 0.00 | 0.00 | 0.00 | 53 | 1022.0 |
| 20260905083417 | 69 | 337 | 2.0 | 2.0 | 0.00 | 0.00 | 0.00 | 53 | 1023.0 |
| 20260905083017 | 69 | 30 | 1.0 | 2.0 | 0.00 | 0.00 | 0.00 | 53 | 1023.0 |
| 20260905082217 | 68 | 359 | 4.0 | 4.0 | 0.00 | 0.00 | 0.00 | 53 | 1022.0 |
| 20260905081817 | 68 | 87 | 4.0 | 4.0 | 0.00 | 0.00 | 0.00 | 52 | 1022.0 |
| 20260905081419 | 67 | 19 | 3.0 | 3.0 | 0.00 | 0.00 | 0.00 | 52 | 1022.0 |
| 20260905081016 | 67 | 358 | 4.0 | 4.0 | 0.00 | 0.00 | 0.00 | 53 | 1023.0 |
| 20260905080618 | 67 | 0 | 2.0 | 2.0 | 0.00 | 0.00 | 0.00 | 53 | 1023.0 |
| 20260905080216 | 67 | 352 | 4.0 | 4.0 | 0.00 | 0.00 | 0.00 | 52 | 1023.0 |
| 20260905075817 | 67 | 327 | 3.0 | 3.0 | 0.00 | 0.00 | 0.00 | 52 | 1023.0 |
| 20260905075416 | 67 | 358 | 6.0 | 6.0 | 0.00 | 0.00 | 0.00 | 51 | 1023.0 |
| 20260905075017 | 67 | 15 | 2.0 | 2.0 | 0.00 | 0.00 | 0.00 | 52 | 1023.0 |
| 20260905074617 | 67 | 23 | 0.0 | 4.0 | 0.00 | 0.00 | 0.00 | 52 | 1023.0 |
| 20260905074217 | 67 | 352 | 3.0 | 3.0 | 0.00 | 0.00 | 0.00 | 51 | 1023.0 |
| 20260905073817 | 67 | 331 | 9.0 | 12.0 | 0.00 | 0.00 | 0.00 | 51 | 1023.0 |
| 20260905073417 | 66 | 9 | 6.0 | 7.0 | 0.00 | 0.00 | 0.00 | 51 | 1023.0 |
| 20260905073017 | 66 | 338 | 6.0 | 6.0 | 0.00 | 0.00 | 0.00 | 51 | 1023.0 |
| 20260905072617 | 66 | 355 | 3.0 | 8.0 | 0.00 | 0.00 | 0.00 | 53 | 1023.0 |
| 20260905072218 | 66 | 182 | 1.0 | 2.0 | 0.00 | 0.00 | 0.00 | 52 | 1023.0 |
| 20260905071817 | 66 | 327 | 4.0 | 6.0 | 0.00 | 0.00 | 0.00 | 52 | 1023.0 |
| 20260905071017 | 67 | 329 | 2.0 | 3.0 | 0.00 | 0.00 | 0.00 | 53 | 1023.0 |
| 20260905070617 | 66 | 357 | 7.0 | 8.0 | 0.00 | 0.00 | 0.00 | 53 | 1023.0 |
| 20260905070217 | 66 | 0 | 4.0 | 8.0 | 0.00 | 0.00 | 0.00 | 54 | 1023.0 |
| 20260905065817 | 66 | 309 | 3.0 | 4.0 | 0.00 | 0.00 | 0.00 | 54 | 1023.0 |
| 20260905064616 | 66 | 37 | 3.0 | 4.0 | 0.00 | 0.00 | 0.00 | 56 | 1023.0 |
| 20260905064216 | 66 | 8 | 2.0 | 2.0 | 0.00 | 0.00 | 0.00 | 56 | 1023.0 |
| 20260905063817 | 66 | 111 | 4.0 | 4.0 | 0.00 | 0.00 | 0.00 | 56 | 1022.0 |
| 20260905063417 | 66 | 353 | 4.0 | 7.0 | 0.00 | 0.00 | 0.00 | 56 | 1022.0 |
| 20260905063017 | 66 | 121 | 1.0 | 3.0 | 0.00 | 0.00 | 0.00 | 56 | 1022.0 |
| 20260905062617 | 66 | 355 | 6.0 | 6.0 | 0.00 | 0.00 | 0.00 | 56 | 1022.0 |
| 20260905061817 | 67 | 125 | 4.0 | 10.0 | 0.00 | 0.00 | 0.00 | 55 | 1022.0 |
| 20260905061417 | 67 | 179 | 2.0 | 5.0 | 0.00 | 0.00 | 0.00 | 55 | 1022.0 |
| 20260905061018 | 67 | 318 | 1.0 | 1.0 | 0.00 | 0.00 | 0.00 | 55 | 1022.0 |
| 20260905060617 | 67 | 30 | 0.0 | 3.0 | 0.00 | 0.00 | 0.00 | 54 | 1022.0 |
| 20260905060217 | 67 | 77 | 2.0 | 4.0 | 0.00 | 0.00 | 0.00 | 54 | 1022.0 |
| 20260905055818 | 67 | 41 | 3.0 | 4.0 | 0.00 | 0.00 | 0.00 | 55 | 1022.0 |
| 20260905055016 | 67 | 298 | 5.0 | 6.0 | 0.00 | 0.00 | 0.00 | 55 | 1021.0 |
| 20260905054616 | 67 | 325 | 5.0 | 5.0 | 0.00 | 0.00 | 0.00 | 57 | 1021.0 |
| 20260905053815 | 67 | 145 | 2.0 | 4.0 | 0.00 | 0.00 | 0.00 | 57 | 1020.0 |
| 20260905053416 | 67 | 303 | 8.0 | 10.0 | 0.00 | 0.00 | 0.00 | 58 | 1020.0 |
| 20260905053016 | 67 | 1 | 1.0 | 4.0 | 0.00 | 0.00 | 0.00 | 57 | 1020.0 |
| 20260905052616 | 68 | 100 | 2.0 | 12.0 | 0.00 | 0.00 | 0.00 | 57 | 1020.0 |
| 20260905052218 | 68 | 121 | 6.0 | 9.0 | 0.00 | 0.00 | 0.00 | 57 | 1020.0 |
| 20260905051816 | 68 | 264 | 2.0 | 6.0 | 0.00 | 0.00 | 0.00 | 57 | 1020.0 |
| 20260905051417 | 68 | 296 | 6.0 | 6.0 | 0.00 | 0.00 | 0.00 | 59 | 1019.0 |
| 20260905050617 | 68 | 314 | 8.0 | 11.0 | 0.00 | 0.00 | 0.00 | 60 | 1019.0 |
| 20260905050218 | 69 | 326 | 6.0 | 7.0 | 0.00 | 0.00 | 0.00 | 60 | 1019.0 |
| 20260905045817 | 69 | 338 | 6.0 | 8.0 | 0.00 | 0.00 | 0.00 | 61 | 1019.0 |
| 20260905045416 | 70 | 17 | 7.0 | 8.0 | 0.00 | 0.00 | 0.00 | 60 | 1019.0 |
| 20260905045017 | 72 | 353 | 8.0 | 9.0 | 0.00 | 0.00 | 0.00 | 58 | 1019.0 |
| 20260905043817 | 75 | 293 | 7.0 | 8.0 | 0.00 | 0.00 | 0.00 | 54 | 1018.0 |
| 20260905043416 | 75 | 329 | 9.0 | 9.0 | 0.00 | 0.00 | 0.00 | 54 | 1018.0 |
| 20260905043018 | 75 | 348 | 6.0 | 11.0 | 0.00 | 0.00 | 0.00 | 54 | 1017.0 |
| 20260905042617 | 75 | 350 | 6.0 | 7.0 | 0.00 | 0.00 | 0.00 | 54 | 1017.0 |
| 20260905042217 | 75 | 3 | 4.0 | 7.0 | 0.00 | 0.00 | 0.00 | 54 | 1018.0 |
| 20260905041817 | 74 | 328 | 7.0 | 11.0 | 0.00 | 0.00 | 0.00 | 56 | 1018.0 |
| 20260905041419 | 72 | 359 | 7.0 | 12.0 | 0.00 | 0.00 | 0.00 | 60 | 1018.0 |
| 20260905041017 | 69 | 5 | 9.0 | 13.0 | 0.00 | 0.00 | 0.00 | 66 | 1017.0 |
| 20260905040617 | 66 | 288 | 3.0 | 6.0 | 0.00 | 0.00 | 0.00 | 73 | 1017.0 |
| 20260905040217 | 61 | 245 | 3.0 | 4.0 | 0.00 | 0.00 | 0.00 | 83 | 1017.0 |
| 20260905035817 | 60 | 21 | 5.0 | 5.0 | 0.00 | 0.00 | 0.00 | 84 | 1017.0 |
| 20260905035416 | 60 | 89 | 2.0 | 3.0 | 0.00 | 0.00 | 0.00 | 84 | 1017.0 |
| 20260905035016 | 60 | 326 | 0.0 | 2.0 | 0.00 | 0.00 | 0.00 | 84 | 1017.0 |
| 20260905034616 | 60 | 240 | 2.0 | 2.0 | 0.00 | 0.00 | 0.00 | 84 | 1017.0 |
| 20260905034216 | 60 | 321 | 0.0 | 0.0 | 0.00 | 0.00 | 0.00 | 84 | 1017.0 |
| 20260905033817 | 60 | 322 | 0.0 | 1.0 | 0.00 | 0.00 | 0.00 | 85 | 1017.0 |
| 20260905033418 | 60 | 257 | 2.0 | 2.0 | 0.00 | 0.00 | 0.00 | 85 | 1017.0 |
| 20260905033018 | 60 | 191 | 0.0 | 0.0 | 0.00 | 0.00 | 0.00 | 84 | 1017.0 |
| 20260905032217 | 60 | 274 | 0.0 | 0.0 | 0.00 | 0.00 | 0.00 | 83 | 1017.0 |
| 20260905031818 | 60 | 296 | 0.0 | 1.0 | 0.00 | 0.00 | 0.00 | 83 | 1017.0 |
| 20260905031417 | 60 | 89 | 1.0 | 1.0 | 0.00 | 0.00 | 0.00 | 83 | 1017.0 |
| 20260905031017 | 60 | 292 | 0.0 | 2.0 | 0.00 | 0.00 | 0.00 | 83 | 1017.0 |
| 20260905030617 | 61 | 269 | 1.0 | 1.0 | 0.00 | 0.00 | 0.00 | 83 | 1017.0 |
| 20260905030217 | 61 | 103 | 0.0 | 0.0 | 0.00 | 0.00 | 0.00 | 83 | 1017.0 |
| 20260905025816 | 61 | 147 | 0.0 | 0.0 | 0.00 | 0.00 | 0.00 | 82 | 1017.0 |
| 20260905025416 | 61 | 159 | 0.0 | 0.0 | 0.00 | 0.00 | 0.00 | 82 | 1017.0 |
| 20260905025016 | 61 | 235 | 0.0 | 0.0 | 0.00 | 0.00 | 0.00 | 82 | 1017.0 |
| 20260905024617 | 61 | 91 | 0.0 | 0.0 | 0.00 | 0.00 | 0.00 | 82 | 1017.0 |
| 20260905023817 | 61 | 187 | 2.0 | 2.0 | 0.00 | 0.00 | 0.00 | 82 | 1017.0 |
| 20260905023017 | 61 | 129 | 0.0 | 0.0 | 0.00 | 0.00 | 0.00 | 81 | 1017.0 |
| 20260905022617 | 61 | 284 | 1.0 | 1.0 | 0.00 | 0.00 | 0.00 | 80 | 1017.0 |
| 20260905022217 | 62 | 309 | 0.0 | 0.0 | 0.00 | 0.00 | 0.00 | 80 | 1017.0 |
| 20260905021817 | 62 | 135 | 0.0 | 0.0 | 0.00 | 0.00 | 0.00 | 80 | 1017.0 |
| 20260905021417 | 62 | 91 | 2.0 | 2.0 | 0.00 | 0.00 | 0.00 | 80 | 1017.0 |
| 20260905021017 | 62 | 252 | 1.0 | 1.0 | 0.00 | 0.00 | 0.00 | 80 | 1017.0 |
| 20260905020617 | 62 | 326 | 0.0 | 0.0 | 0.00 | 0.00 | 0.00 | 79 | 1017.0 |
| 20260905015817 | 62 | 292 | 2.0 | 2.0 | 0.00 | 0.00 | 0.00 | 78 | 1017.0 |
| 20260905015418 | 63 | 230 | 0.0 | 1.0 | 0.00 | 0.00 | 0.00 | 78 | 1017.0 |
| 20260905015016 | 63 | 126 | 3.0 | 3.0 | 0.00 | 0.00 | 0.00 | 78 | 1017.0 |
| 20260905014217 | 63 | 160 | 2.0 | 2.0 | 0.00 | 0.00 | 0.00 | 78 | 1017.0 |
| 20260905013816 | 62 | 141 | 1.0 | 2.0 | 0.00 | 0.00 | 0.00 | 79 | 1017.0 |
| 20260905013416 | 62 | 278 | 1.0 | 2.0 | 0.00 | 0.00 | 0.00 | 79 | 1017.0 |
| 20260905013016 | 62 | 144 | 2.0 | 2.0 | 0.00 | 0.00 | 0.00 | 79 | 1017.0 |
| 20260905012617 | 63 | 166 | 0.0 | 1.0 | 0.00 | 0.00 | 0.00 | 78 | 1017.0 |
| 20260905012218 | 63 | 284 | 2.0 | 2.0 | 0.00 | 0.00 | 0.00 | 77 | 1017.0 |
| 20260905011017 | 63 | 149 | 0.0 | 3.0 | 0.00 | 0.00 | 0.00 | 78 | 1017.0 |
| 20260905010617 | 63 | 184 | 1.0 | 2.0 | 0.00 | 0.00 | 0.00 | 79 | 1017.0 |
| 20260905010218 | 63 | 220 | 2.0 | 2.0 | 0.00 | 0.00 | 0.00 | 78 | 1017.0 |
| 20260905005817 | 63 | 323 | 2.0 | 2.0 | 0.00 | 0.00 | 0.00 | 78 | 1017.0 |
| 20260905005017 | 63 | 280 | 0.0 | 1.0 | 0.00 | 0.00 | 0.00 | 78 | 1017.0 |
| 20260905004616 | 63 | 173 | 0.0 | 1.0 | 0.00 | 0.00 | 0.00 | 78 | 1017.0 |
| 20260905004218 | 63 | 2 | 0.0 | 0.0 | 0.00 | 0.00 | 0.00 | 78 | 1017.0 |
| 20260905003817 | 63 | 284 | 0.0 | 1.0 | 0.00 | 0.00 | 0.00 | 77 | 1017.0 |
| 20260905003416 | 63 | 187 | 1.0 | 2.0 | 0.00 | 0.00 | 0.00 | 77 | 1017.0 |
| 20260905003017 | 64 | 32 | 1.0 | 1.0 | 0.00 | 0.00 | 0.00 | 77 | 1017.0 |
| 20260905002616 | 64 | 154 | 0.0 | 0.0 | 0.00 | 0.00 | 0.00 | 76 | 1017.0 |
| 20260905001818 | 64 | 297 | 0.0 | 0.0 | 0.00 | 0.00 | 0.00 | 76 | 1017.0 |
| 20260905001417 | 64 | 283 | 0.0 | 0.0 | 0.00 | 0.00 | 0.00 | 76 | 1017.0 |
| 20260905001017 | 64 | 119 | 2.0 | 2.0 | 0.00 | 0.00 | 0.00 | 75 | 1017.0 |
| 20260905000617 | 64 | 116 | 2.0 | 3.0 | 0.00 | 0.00 | 0.00 | 76 | 1017.0 |
| 20260904235817 | 64 | 198 | 1.0 | 1.0 | 0.00 | 0.00 | 0.00 | 75 | 1017.0 |
| 20260904235417 | 64 | 303 | 0.0 | 0.0 | 0.00 | 0.00 | 0.00 | 75 | 1017.0 |
| 20260904235017 | 64 | 89 | 0.0 | 0.0 | 0.00 | 0.00 | 0.00 | 76 | 1017.0 |
| 20260904234616 | 64 | 207 | 0.0 | 1.0 | 0.00 | 0.00 | 0.00 | 76 | 1017.0 |
| 20260904234216 | 64 | 252 | 1.0 | 1.0 | 0.00 | 0.00 | 0.00 | 75 | 1017.0 |
| 20260904233817 | 64 | 54 | 0.0 | 2.0 | 0.00 | 0.00 | 0.00 | 76 | 1017.0 |
| 20260904233416 | 64 | 182 | 0.0 | 0.0 | 0.00 | 0.00 | 0.00 | 75 | 1016.0 |
| 20260904233016 | 64 | 199 | 0.0 | 0.0 | 0.00 | 0.00 | 0.00 | 75 | 1017.0 |
| 20260904232617 | 64 | 15 | 0.0 | 0.0 | 0.00 | 0.00 | 0.00 | 75 | 1017.0 |
| 20260904232217 | 64 | 154 | 0.0 | 0.0 | 0.00 | 0.00 | 0.00 | 74 | 1017.0 |
| 20260904231817 | 64 | 75 | 0.0 | 0.0 | 0.00 | 0.00 | 0.00 | 74 | 1017.0 |
| 20260904231418 | 65 | 269 | 0.0 | 0.0 | 0.00 | 0.00 | 0.00 | 74 | 1017.0 |